createdAt,value
2022-09-13T00:04:04.268Z,16.31
2022-09-13T00:08:08.468Z,16.25
2022-09-13T00:12:11.808Z,16.21
2022-09-13T00:16:17.145Z,16.17
2022-09-13T00:20:21.660Z,16.14
2022-09-13T00:24:24.684Z,16.11
2022-09-13T00:28:27.658Z,16.07
2022-09-13T00:32:30.928Z,16.02
2022-09-13T00:36:35.414Z,15.96
2022-09-13T00:40:39.322Z,15.91
2022-09-13T00:44:57.967Z,15.89
2022-09-13T00:49:09.072Z,15.87
2022-09-13T00:53:36.927Z,15.81
2022-09-13T00:57:42.087Z,15.77
2022-09-13T01:01:50.698Z,15.74
2022-09-13T01:05:57.628Z,15.69
2022-09-13T01:10:07.936Z,15.67
2022-09-13T01:14:11.868Z,15.62
2022-09-13T01:18:15.493Z,15.56
2022-09-13T01:22:55.626Z,15.53
2022-09-13T01:27:31.159Z,15.45
2022-09-13T01:31:39.803Z,15.39
2022-09-13T01:36:06.653Z,15.37
2022-09-13T01:40:24.617Z,15.33
2022-09-13T01:44:48.718Z,15.31
2022-09-13T01:48:59.917Z,15.31
2022-09-13T01:53:07.441Z,15.28
2022-09-13T01:57:17.386Z,15.25
2022-09-13T02:01:26.353Z,15.21
2022-09-13T02:05:35.063Z,15.17
2022-09-13T02:09:42.659Z,15.14
2022-09-13T02:13:51.228Z,15.09
2022-09-13T02:18:05.909Z,15.04
2022-09-13T02:22:15.536Z,15.00
2022-09-13T02:26:21.605Z,14.98
2022-09-13T02:30:24.960Z,14.97
2022-09-13T02:34:34.771Z,14.94
2022-09-13T02:38:45.642Z,14.91
2022-09-13T02:42:53.127Z,14.89
2022-09-13T02:47:12.124Z,14.88
2022-09-13T02:51:25.764Z,14.84
2022-09-13T02:55:38.642Z,14.79
2022-09-13T02:59:42.008Z,14.76
2022-09-13T03:03:45.422Z,14.69
2022-09-13T03:07:48.864Z,14.61
2022-09-13T03:12:13.757Z,14.57
2022-09-13T03:16:46.527Z,14.52
2022-09-13T03:21:01.779Z,14.51
2022-09-13T03:25:10.222Z,14.47
2022-09-13T03:29:41.436Z,14.46
2022-09-13T03:33:50.338Z,14.42
2022-09-13T03:38:00.306Z,14.38
2022-09-13T03:42:12.296Z,14.36
2022-09-13T03:46:20.530Z,14.31
2022-09-13T03:50:26.613Z,14.29
2022-09-13T03:54:32.549Z,14.28
2022-09-13T03:58:35.549Z,14.26
2022-09-13T04:02:39.892Z,14.21
2022-09-13T04:06:42.992Z,14.13
2022-09-13T04:10:46.002Z,14.13
2022-09-13T04:14:49.292Z,14.11
2022-09-13T04:18:53.840Z,14.10
2022-09-13T04:22:57.759Z,14.09
2022-09-13T04:27:02.420Z,14.08
2022-09-13T04:31:05.558Z,14.05
2022-09-13T04:35:10.711Z,14.05
2022-09-13T04:39:14.329Z,14.05
2022-09-13T04:43:17.531Z,14.05
2022-09-13T04:47:20.518Z,14.04
2022-09-13T04:51:25.175Z,14.03
2022-09-13T04:55:28.167Z,14.02
2022-09-13T04:59:31.180Z,13.98
2022-09-13T05:03:35.928Z,14.00
2022-09-13T05:07:40.309Z,14.00
2022-09-13T05:11:44.025Z,14.01
2022-09-13T05:15:48.145Z,14.00
2022-09-13T05:19:51.322Z,13.99
2022-09-13T05:23:56.966Z,13.99
2022-09-13T05:28:00.192Z,14.00
2022-09-13T05:32:04.448Z,13.97
2022-09-13T05:36:08.164Z,13.96
2022-09-13T05:40:13.105Z,13.97
2022-09-13T05:44:16.136Z,13.95
2022-09-13T05:48:19.118Z,13.97
2022-09-13T05:52:22.367Z,13.99
2022-09-13T05:56:28.425Z,14.02
2022-09-13T06:00:32.496Z,14.06
2022-09-13T06:04:36.766Z,14.10
2022-09-13T06:08:40.250Z,14.17
2022-09-13T06:12:44.845Z,14.23
2022-09-13T06:16:47.858Z,14.28
2022-09-13T06:20:50.831Z,14.35
2022-09-13T06:24:53.833Z,14.41
2022-09-13T06:28:59.344Z,14.49
2022-09-13T06:33:02.416Z,14.57
2022-09-13T06:37:05.453Z,14.66
2022-09-13T06:41:11.062Z,14.73
2022-09-13T06:45:15.419Z,14.81
2022-09-13T06:49:18.439Z,14.90
2022-09-13T06:53:21.566Z,15.02
2022-09-13T06:57:24.683Z,15.14
2022-09-13T07:01:30.856Z,15.24
2022-09-13T07:05:34.131Z,15.36
2022-09-13T07:09:37.330Z,15.43
2022-09-13T07:13:40.720Z,15.53
2022-09-13T07:17:45.296Z,15.68
2022-09-13T07:21:49.869Z,15.87
2022-09-13T07:25:56.009Z,16.04
2022-09-13T07:29:59.053Z,16.25
2022-09-13T07:34:05.107Z,16.43
2022-09-13T07:38:08.095Z,16.66
2022-09-13T07:42:11.397Z,16.85
2022-09-13T07:46:16.706Z,17.00
2022-09-13T07:50:21.354Z,17.13
2022-09-13T07:54:24.635Z,17.26
2022-09-13T07:58:28.137Z,17.48
2022-09-13T08:02:31.387Z,17.69
2022-09-13T08:06:37.598Z,17.86
2022-09-13T08:10:40.771Z,18.04
2022-09-13T08:14:43.749Z,18.20
2022-09-13T08:18:48.170Z,18.34
2022-09-13T08:22:53.198Z,18.46
2022-09-13T08:26:57.035Z,18.57
2022-09-13T08:31:05.897Z,18.69
2022-09-13T08:35:09.995Z,18.86
2022-09-13T08:39:14.683Z,18.97
2022-09-13T08:43:27.211Z,19.13
2022-09-13T08:47:40.583Z,19.24
2022-09-13T08:51:49.066Z,19.39
2022-09-13T08:56:02.834Z,19.48
2022-09-13T09:00:20.107Z,19.55
2022-09-13T09:04:39.050Z,19.67
2022-09-13T09:08:47.929Z,19.72
2022-09-13T09:12:58.124Z,19.85
2022-09-13T09:17:04.494Z,19.96
2022-09-13T09:21:15.905Z,20.07
2022-09-13T09:25:21.352Z,20.18
2022-09-13T09:29:28.789Z,20.35
2022-09-13T09:33:51.175Z,20.47
2022-09-13T09:38:14.827Z,20.54
2022-09-13T09:42:20.570Z,20.69
2022-09-13T09:46:31.218Z,20.79
2022-09-13T09:50:39.650Z,20.86
2022-09-13T09:54:42.811Z,20.91
2022-09-13T09:58:47.509Z,21.01
2022-09-13T10:02:55.493Z,21.21
2022-09-13T10:07:27.091Z,21.34
2022-09-13T10:11:41.902Z,21.37
2022-09-13T10:15:55.338Z,21.50
2022-09-13T10:20:02.077Z,21.54
2022-09-13T10:24:19.269Z,21.67
2022-09-13T10:28:23.284Z,21.77
2022-09-13T10:32:26.912Z,21.94
2022-09-13T10:36:52.580Z,22.06
2022-09-13T10:40:56.424Z,22.17
2022-09-13T10:45:02.420Z,22.28
2022-09-13T10:49:05.806Z,22.39
2022-09-13T10:53:33.064Z,22.49
2022-09-13T10:57:37.877Z,22.64
2022-09-13T11:01:48.323Z,22.68
2022-09-13T11:06:01.271Z,22.81
2022-09-13T11:10:14.006Z,22.91
2022-09-13T11:14:38.377Z,23.03
2022-09-13T11:19:09.739Z,23.21
2022-09-13T11:23:33.924Z,23.33
2022-09-13T11:27:47.202Z,23.35
2022-09-13T11:32:00.632Z,23.44
2022-09-13T11:36:20.266Z,23.51
2022-09-13T11:40:34.035Z,23.58
2022-09-13T11:45:04.291Z,23.64
2022-09-13T11:49:35.410Z,23.66
2022-09-13T11:53:57.928Z,23.73
2022-09-13T11:58:05.318Z,23.85
2022-09-13T12:02:19.242Z,23.94
2022-09-13T12:06:26.743Z,24.02
2022-09-13T12:10:35.241Z,24.03
2022-09-13T12:14:46.623Z,24.08
2022-09-13T12:18:54.303Z,24.12
2022-09-13T12:23:01.264Z,24.14
2022-09-13T12:27:08.294Z,24.08
2022-09-13T12:31:16.390Z,24.02
2022-09-13T12:35:27.271Z,24.11
2022-09-13T12:40:00.384Z,24.17
2022-09-13T12:44:21.577Z,24.17
2022-09-13T12:48:44.142Z,24.17
2022-09-13T12:53:02.725Z,24.23
2022-09-13T12:57:25.540Z,24.33
2022-09-13T13:01:31.875Z,24.40
2022-09-13T13:05:38.609Z,24.42
2022-09-13T13:09:45.725Z,24.43
2022-09-13T13:13:57.431Z,24.50
2022-09-13T13:18:24.692Z,24.51
2022-09-13T13:22:53.170Z,24.50
2022-09-13T13:26:59.350Z,24.53
2022-09-13T13:31:02.488Z,24.53
2022-09-13T13:35:30.026Z,24.59
2022-09-13T13:39:41.968Z,24.79
2022-09-13T13:43:46.600Z,24.88
2022-09-13T13:48:09.180Z,24.93
2022-09-13T13:52:37.994Z,24.91
2022-09-13T13:56:49.473Z,24.90
2022-09-13T14:00:56.128Z,24.98
2022-09-13T14:05:11.031Z,24.99
2022-09-13T14:09:33.398Z,24.95
2022-09-13T14:13:47.380Z,24.97
2022-09-13T14:18:13.190Z,25.03
2022-09-13T14:22:20.293Z,25.06
2022-09-13T14:26:23.346Z,25.04
2022-09-13T14:30:30.874Z,24.97
2022-09-13T14:34:38.771Z,24.96
2022-09-13T14:38:54.808Z,24.92
2022-09-13T14:42:58.427Z,24.86
2022-09-13T14:47:07.346Z,24.80
2022-09-13T14:51:20.540Z,24.79
2022-09-13T14:55:30.213Z,24.78
2022-09-13T14:59:36.825Z,24.78
2022-09-13T15:03:48.501Z,24.75
2022-09-13T15:07:54.670Z,24.69
2022-09-13T15:12:02.119Z,24.65
2022-09-13T15:16:27.532Z,24.59
2022-09-13T15:20:45.282Z,24.55
2022-09-13T15:24:52.052Z,24.48
2022-09-13T15:28:57.287Z,24.43
2022-09-13T15:33:16.425Z,24.40
2022-09-13T15:37:31.402Z,24.37
2022-09-13T15:41:37.509Z,24.31
2022-09-13T15:45:40.771Z,24.24
2022-09-13T15:49:49.248Z,24.18
2022-09-13T15:53:53.189Z,24.16
2022-09-13T15:57:57.704Z,24.12
2022-09-13T16:02:02.589Z,24.06
2022-09-13T16:06:07.212Z,24.00
2022-09-13T16:10:16.369Z,23.95
2022-09-13T16:14:21.947Z,23.91
2022-09-13T16:18:25.729Z,23.90
2022-09-13T16:22:29.071Z,23.91
2022-09-13T16:26:34.197Z,23.88
2022-09-13T16:30:38.539Z,23.87
2022-09-13T16:34:41.768Z,23.86
2022-09-13T16:38:45.144Z,23.86
2022-09-13T16:42:48.677Z,23.82
2022-09-13T16:46:53.201Z,23.78
2022-09-13T16:51:02.250Z,23.75
2022-09-13T16:55:06.715Z,23.71
2022-09-13T16:59:14.101Z,23.67
2022-09-13T17:03:22.432Z,23.64
2022-09-13T17:07:25.536Z,23.62
2022-09-13T17:11:31.696Z,23.58
2022-09-13T17:15:40.240Z,23.57
2022-09-13T17:19:45.731Z,23.54
2022-09-13T17:23:48.719Z,23.46
2022-09-13T17:27:51.803Z,23.42
2022-09-13T17:31:55.139Z,23.37
2022-09-13T17:36:04.502Z,23.31
2022-09-13T17:40:08.310Z,23.26
2022-09-13T17:44:12.237Z,23.23
2022-09-13T17:48:15.260Z,23.20
2022-09-13T17:52:19.608Z,23.17
2022-09-13T17:56:25.640Z,23.11
2022-09-13T18:00:30.089Z,23.06
2022-09-13T18:04:33.796Z,23.05
2022-09-13T18:08:39.619Z,23.03
2022-09-13T18:12:42.639Z,23.02
2022-09-13T18:16:45.884Z,23.03
2022-09-13T18:20:49.119Z,23.04
2022-09-13T18:24:53.498Z,22.98
2022-09-13T18:28:57.864Z,22.94
2022-09-13T18:33:00.847Z,22.92
2022-09-13T18:37:03.894Z,22.90
2022-09-13T18:41:10.546Z,22.89
2022-09-13T18:45:16.907Z,22.87
2022-09-13T18:49:20.254Z,22.89
2022-09-13T18:53:33.972Z,22.87
2022-09-13T18:57:38.957Z,22.87
2022-09-13T19:01:43.871Z,22.84
2022-09-13T19:05:47.236Z,22.81
2022-09-13T19:09:52.412Z,22.76
2022-09-13T19:13:57.976Z,22.73
2022-09-13T19:18:01.060Z,22.69
2022-09-13T19:22:04.333Z,22.64
2022-09-13T19:26:08.776Z,22.56
2022-09-13T19:30:14.412Z,22.49
2022-09-13T19:34:19.376Z,22.37
2022-09-13T19:38:22.379Z,22.27
2022-09-13T19:42:25.447Z,22.21
2022-09-13T19:46:33.241Z,22.15
2022-09-13T19:50:38.680Z,22.09
2022-09-13T19:54:41.961Z,22.00
2022-09-13T19:58:46.163Z,21.91
2022-09-13T20:02:50.776Z,21.86
2022-09-13T20:06:53.921Z,21.77
2022-09-13T20:10:57.292Z,21.72
2022-09-13T20:15:00.382Z,21.66
2022-09-13T20:19:23.663Z,21.60
2022-09-13T20:23:30.582Z,21.51
2022-09-13T20:27:33.862Z,21.41
2022-09-13T20:31:38.167Z,21.36
2022-09-13T20:35:43.220Z,21.33
2022-09-13T20:39:47.261Z,21.27
2022-09-13T20:43:50.848Z,21.21
2022-09-13T20:47:53.842Z,21.16
2022-09-13T20:51:58.788Z,21.12
2022-09-13T20:56:04.497Z,21.08
2022-09-13T21:00:09.318Z,21.04
2022-09-13T21:04:12.574Z,21.02
2022-09-13T21:08:35.583Z,21.00
2022-09-13T21:12:38.967Z,20.98
2022-09-13T21:16:42.126Z,20.93
2022-09-13T21:20:45.304Z,20.92
2022-09-13T21:24:49.955Z,20.90
2022-09-13T21:28:53.874Z,20.87
2022-09-13T21:32:56.931Z,20.81
2022-09-13T21:37:00.015Z,20.74
2022-09-13T21:41:06.618Z,20.61
2022-09-13T21:45:10.835Z,20.55
2022-09-13T21:49:14.411Z,20.51
2022-09-13T21:53:17.789Z,20.49
2022-09-13T21:57:22.843Z,20.44
2022-09-13T22:01:27.497Z,20.41
2022-09-13T22:05:30.686Z,20.35
2022-09-13T22:09:34.396Z,20.29
2022-09-13T22:13:45.422Z,20.22
2022-09-13T22:17:48.442Z,20.16
2022-09-13T22:21:54.768Z,20.10
2022-09-13T22:25:57.986Z,20.04
2022-09-13T22:30:02.421Z,19.96
2022-09-13T22:34:05.930Z,19.87
2022-09-13T22:38:09.448Z,19.81
2022-09-13T22:42:12.519Z,19.76
2022-09-13T22:46:19.401Z,19.72
2022-09-13T22:50:22.499Z,19.65
2022-09-13T22:54:25.732Z,19.57
2022-09-13T22:58:28.750Z,19.49
2022-09-13T23:02:33.344Z,19.42
2022-09-13T23:06:37.344Z,19.41
2022-09-13T23:10:40.472Z,19.38
2022-09-13T23:14:43.737Z,19.35
2022-09-13T23:18:48.602Z,19.30
2022-09-13T23:22:51.766Z,19.26
2022-09-13T23:26:56.895Z,19.19
2022-09-13T23:31:09.270Z,19.16
2022-09-13T23:35:13.635Z,19.14
2022-09-13T23:39:18.800Z,19.11
2022-09-13T23:43:21.826Z,19.08
2022-09-13T23:47:24.947Z,19.02
2022-09-13T23:51:29.749Z,18.98
2022-09-13T23:55:32.737Z,18.95
2022-09-13T23:59:35.949Z,18.94
